Terminal Aerodrome Forecast
Issued by NWS

Home | Current Version | Previous Version | Text Only | Print | Product List | Glossary On
Versions: 1 2 3 4 5 6 7 8 9 10 11 12 13 14 15
000
FTUS42 KTAE 182300
TAFECP
TAF
KECP 182320Z 1900/1924 01012G22KT P6SM FEW006 BKN030 OVC060
     FM190300 35012KT 6SM BR OVC005
     FM191400 35012G17KT P6SM BKN020
     FM191800 35011G16KT P6SM SCT030=

USA.gov is the U.S. government's official web portal to all federal, state and local government web resources and services.